createdAt,value
2023-08-29T00:02:19.951Z,13.4
2023-08-29T00:12:20.143Z,13.1
2023-08-29T00:22:20.392Z,13.1
2023-08-29T00:32:20.576Z,12.9
2023-08-29T00:42:20.743Z,12.7
2023-08-29T00:52:20.949Z,12.7
2023-08-29T01:02:21.140Z,12.6
2023-08-29T01:12:21.344Z,12.5
2023-08-29T01:22:21.540Z,12.4
2023-08-29T01:32:21.733Z,12.3
2023-08-29T01:42:21.977Z,12.3
2023-08-29T01:52:22.136Z,12.3
2023-08-29T02:02:22.334Z,12.1
2023-08-29T02:12:22.532Z,12
2023-08-29T02:22:22.739Z,12
2023-08-29T02:32:22.960Z,12
2023-08-29T02:42:23.126Z,11.9
2023-08-29T02:52:23.325Z,11.8
2023-08-29T03:12:23.745Z,11.8
2023-08-29T03:22:23.930Z,11.9
2023-08-29T03:32:24.276Z,12
2023-08-29T03:42:24.335Z,12.1
2023-08-29T03:52:24.541Z,12.2
2023-08-29T04:02:24.740Z,12.2
2023-08-29T04:22:25.155Z,12.2
2023-08-29T04:32:25.331Z,12.2
2023-08-29T04:42:25.528Z,12.2
2023-08-29T04:52:25.713Z,12.2
2023-08-29T05:02:25.939Z,12.3
2023-08-29T05:12:26.114Z,12.4
2023-08-29T05:22:26.320Z,12.5
2023-08-29T05:32:27.821Z,12.5
2023-08-29T05:42:26.719Z,12.6
2023-08-29T05:52:26.913Z,12.9
2023-08-29T06:02:27.160Z,13
2023-08-29T06:12:27.315Z,13.2
2023-08-29T06:22:27.492Z,13.4
2023-08-29T06:32:27.724Z,13.6
2023-08-29T06:52:28.091Z,14.1
2023-08-29T07:02:28.412Z,14.4
2023-08-29T07:22:28.693Z,15
2023-08-29T07:32:28.902Z,15.3
2023-08-29T07:42:29.078Z,15.3
2023-08-29T07:52:29.280Z,15.4
2023-08-29T08:02:29.492Z,15.6
2023-08-29T08:12:29.685Z,15.7
2023-08-29T08:22:29.874Z,15.9
2023-08-29T08:32:30.071Z,16.1
2023-08-29T08:42:30.270Z,16.3
2023-08-29T08:52:30.518Z,16.6
2023-08-29T09:02:30.655Z,16.8
2023-08-29T09:12:30.854Z,16.9
2023-08-29T09:22:31.049Z,17.3
2023-08-29T09:32:31.273Z,17.5
2023-08-29T09:42:31.438Z,17.7
2023-08-29T09:52:31.646Z,17.8
2023-08-29T10:02:31.937Z,17.7
2023-08-29T10:22:32.240Z,17.9
2023-08-29T10:32:32.443Z,18.2
2023-08-29T10:52:32.796Z,18.8
2023-08-29T11:12:33.209Z,18.9
2023-08-29T11:42:42.122Z,20.4
2023-08-29T11:52:33.973Z,20.6
2023-08-29T12:02:34.238Z,21.5
2023-08-29T12:12:34.360Z,21
2023-08-29T12:22:34.551Z,20.3
2023-08-29T12:32:34.793Z,19.9
2023-08-29T12:42:34.954Z,20.1
2023-08-29T12:52:35.201Z,19.9
2023-08-29T13:12:35.535Z,20.9
2023-08-29T13:22:35.738Z,21.3
2023-08-29T13:32:35.981Z,20.9
2023-08-29T13:42:36.114Z,21.1
2023-08-29T13:52:36.320Z,20.9
2023-08-29T14:02:36.650Z,20.6
2023-08-29T14:12:36.706Z,19.8
2023-08-29T14:22:36.888Z,19.9
2023-08-29T14:32:37.127Z,20.4
2023-08-29T14:42:37.312Z,20.7
2023-08-29T15:02:37.754Z,21
2023-08-29T15:12:37.859Z,21.2
2023-08-29T15:22:38.087Z,20.9
2023-08-29T15:32:38.309Z,20.5
2023-08-29T15:42:38.461Z,20.1
2023-08-29T15:52:38.649Z,20
2023-08-29T16:02:38.904Z,19.9
2023-08-29T16:22:39.233Z,19.7
2023-08-29T16:32:39.472Z,19.5
2023-08-29T16:42:39.624Z,19.5
2023-08-29T16:52:39.817Z,19.3
2023-08-29T18:12:41.376Z,16.9
2023-08-29T18:22:41.587Z,16.3
2023-08-29T18:32:41.788Z,16
2023-08-29T18:42:41.974Z,15.6
2023-08-29T18:52:42.167Z,15.3
2023-08-29T19:02:42.380Z,15
2023-08-29T19:12:42.552Z,14.9
2023-08-29T19:22:42.800Z,14.8
2023-08-29T19:32:43.011Z,14.7
2023-08-29T19:42:43.146Z,14.7
2023-08-29T19:52:43.341Z,14.8
2023-08-29T20:02:43.567Z,15
2023-08-29T20:12:43.737Z,15.2
2023-08-29T20:22:43.937Z,15.3
2023-08-29T20:32:44.172Z,15.3
2023-08-29T20:42:44.351Z,15.3
2023-08-29T20:52:44.609Z,15.3
2023-08-29T21:12:44.917Z,15.3
2023-08-29T21:22:45.116Z,15.3
2023-08-29T21:32:45.400Z,15.3
2023-08-29T21:42:45.567Z,15.3
2023-08-29T21:52:45.711Z,15.1
2023-08-29T22:02:45.922Z,15
2023-08-29T22:12:46.166Z,14.9
2023-08-29T22:22:46.300Z,14.7
2023-08-29T22:52:46.890Z,14.2
2023-08-29T23:02:47.138Z,14.1
2023-08-29T23:22:47.484Z,13.5
2023-08-29T23:32:47.724Z,13.3
2023-08-29T23:42:47.879Z,13.2
2023-08-29T23:52:48.110Z,13.1
